Time;durP1;ratioP1;P1;durP2;ratioP2;P2;SDS_P1;SDS_P2;PMS_P1;PMS_P2;Temp;Humidity;BMP_temperature;BMP_pressure;BME280_temperature;BME280_humidity;BME280_pressure;Samples;Min_cycle;Max_cycle;Signal;HPM_P1;HPM_P2
2022/06/04 00:02:27;;;;;;;;;;;;;;;17.83;76.60;97972.75;5054594;28;19931;-54
2022/06/04 00:05:17;;;;;;;;;;;;;;;17.86;76.24;97969.31;5055392;28;20024;-56
2022/06/04 00:08:06;;;;;;;;;;;;;;;17.74;76.64;97979.25;5059922;28;19924;-56
2022/06/04 00:17:23;;;;;;;;;;;;;;;17.63;77.08;98005.66;4995595;28;20081;-56
2022/06/04 00:20:12;;;;;;;;;;;;;;;17.56;77.32;98005.44;5055591;28;20435;-56
2022/06/04 00:23:01;;;;;;;;;;;;;;;17.53;77.59;98001.47;5055391;28;20075;-56
2022/06/04 00:25:52;;;;;;;;;;;;;;;17.59;77.47;97999.25;5056760;28;19921;-56
2022/06/04 00:28:41;;;;;;;;;;;;;;;17.64;76.91;97989.97;5059479;28;19942;-56
2022/06/04 00:31:31;;;;;;;;;;;;;;;17.57;76.97;97987.00;5059789;28;19924;-56
2022/06/04 00:34:20;;;;;;;;;;;;;;;17.52;77.37;97997.16;5060042;28;19928;-56
2022/06/04 00:37:08;;;;;;;;;;;;;;;17.61;77.02;97985.97;5048831;28;20441;-55
2022/06/04 00:39:58;;;;;;;;;;;;;;;17.56;77.07;97991.72;5055036;28;19929;-56
2022/06/04 00:42:47;;;;;;;;;;;;;;;17.59;77.08;97987.47;5037724;28;19921;-56
2022/06/04 00:45:56;;;;;;;;;;;;;;;17.56;76.96;97991.72;5052433;28;19947;-57
2022/06/04 00:48:46;;;;;;;;;;;;;;;17.52;77.31;97999.88;5039467;28;19924;-56
2022/06/04 00:52:01;;;;;;;;;;;;;;;17.78;75.93;97993.84;5061274;28;19924;-56
2022/06/04 00:54:52;;;;;;;;;;;;;;;17.64;76.40;97998.19;5055749;28;19924;-55
2022/06/04 00:57:55;;;;;;;;;;;;;;;17.90;75.57;97997.66;5058968;28;20304;-56
2022/06/04 01:01:08;;;;;;;;;;;;;;;17.61;76.17;97990.66;5056703;28;19933;-55
2022/06/04 01:04:01;;;;;;;;;;;;;;;17.61;75.99;97993.41;5052390;28;20003;-56
2022/06/04 01:06:51;;;;;;;;;;;;;;;17.26;77.39;98000.41;5050976;28;19925;-56
2022/06/04 01:09:59;;;;;;;;;;;;;;;17.06;78.13;97997.91;5054982;28;19935;-56
2022/06/04 01:12:53;;;;;;;;;;;;;;;17.22;77.54;97999.50;5054227;28;20214;-56
2022/06/04 01:15:50;;;;;;;;;;;;;;;17.25;76.73;97998.78;5059997;28;19983;-56
2022/06/04 01:21:47;;;;;;;;;;;;;;;17.09;77.46;98016.38;5056777;28;19925;-56
2022/06/04 01:24:39;;;;;;;;;;;;;;;17.05;77.79;98012.78;5050961;28;20301;-56
2022/06/04 01:27:30;;;;;;;;;;;;;;;17.25;76.60;98015.25;5053190;28;20216;-56
2022/06/04 01:30:20;;;;;;;;;;;;;;;17.12;76.98;98010.22;5053311;28;20012;-56
2022/06/04 01:33:09;;;;;;;;;;;;;;;17.10;76.92;98016.06;5054178;28;19924;-56
2022/06/04 01:35:59;;;;;;;;;;;;;;;17.02;77.13;98017.00;5053156;28;19921;-56
2022/06/04 01:38:48;;;;;;;;;;;;;;;16.98;77.36;98014.16;5057485;28;20407;-55
2022/06/04 01:41:36;;;;;;;;;;;;;;;16.95;77.25;98022.31;5054139;28;20358;-56
2022/06/04 01:44:26;;;;;;;;;;;;;;;16.95;77.23;98022.31;5059780;28;19920;-56
2022/06/04 01:47:14;;;;;;;;;;;;;;;16.75;77.49;98024.91;5052727;28;19927;-55
2022/06/04 01:50:03;;;;;;;;;;;;;;;16.86;77.16;98019.72;5058422;28;19971;-55
2022/06/04 01:52:52;;;;;;;;;;;;;;;16.75;77.37;98030.38;5058102;28;20502;-55
2022/06/04 01:55:43;;;;;;;;;;;;;;;17.07;76.26;98022.25;5053536;28;20046;-55
2022/06/04 01:58:58;;;;;;;;;;;;;;;17.02;75.85;98022.50;5054689;28;19924;-57
2022/06/04 02:01:50;;;;;;;;;;;;;;;17.06;76.49;98017.91;5058911;28;20035;-56
2022/06/04 02:04:39;;;;;;;;;;;;;;;17.21;75.11;98016.34;5046376;28;20205;-55
2022/06/04 02:07:31;;;;;;;;;;;;;;;17.04;75.90;98011.94;5055449;28;19924;-55
2022/06/04 02:10:21;;;;;;;;;;;;;;;16.77;76.75;98006.13;5056001;28;19925;-55
2022/06/04 02:13:10;;;;;;;;;;;;;;;16.65;76.85;97999.88;5057689;28;19924;-57
2022/06/04 02:15:59;;;;;;;;;;;;;;;16.67;76.91;97989.34;5046630;28;19925;-54
2022/06/04 02:18:49;;;;;;;;;;;;;;;16.84;75.77;97991.03;5048634;28;20442;-55
2022/06/04 02:21:38;;;;;;;;;;;;;;;16.56;76.78;97983.56;5059752;28;19933;-57
2022/06/04 02:24:26;;;;;;;;;;;;;;;16.54;77.09;97979.56;5056736;28;19932;-54
2022/06/04 02:27:15;;;;;;;;;;;;;;;16.66;76.43;97974.03;5063567;28;19966;-56
2022/06/04 02:30:04;;;;;;;;;;;;;;;16.49;76.82;97978.66;5051424;28;19921;-55
2022/06/04 02:33:02;;;;;;;;;;;;;;;16.38;77.23;97983.06;5059492;28;20090;-53
2022/06/04 02:35:59;;;;;;;;;;;;;;;16.75;75.64;97972.78;5058956;28;19924;-57
2022/06/04 02:38:49;;;;;;;;;;;;;;;16.47;76.65;97960.97;5062418;28;19927;-58
2022/06/04 02:41:39;;;;;;;;;;;;;;;16.44;76.69;97964.41;5068439;28;20077;-58
2022/06/04 02:44:28;;;;;;;;;;;;;;;16.45;76.44;97972.28;5059696;28;20289;-57
2022/06/04 02:47:16;;;;;;;;;;;;;;;16.37;77.06;97973.25;5062476;28;19943;-57
2022/06/04 02:50:06;;;;;;;;;;;;;;;16.36;77.22;97976.34;5063314;28;19930;-58
2022/06/04 02:52:56;;;;;;;;;;;;;;;16.46;76.27;97981.34;5060732;28;20519;-57
2022/06/04 02:55:46;;;;;;;;;;;;;;;16.21;77.25;97997.84;5061904;28;19928;-57
2022/06/04 02:58:59;;;;;;;;;;;;;;;16.27;77.31;97992.13;5058498;28;19924;-57
2022/06/04 03:01:48;;;;;;;;;;;;;;;16.16;77.60;97987.13;5062668;28;19924;-58
2022/06/04 03:04:41;;;;;;;;;;;;;;;16.10;77.72;97988.50;5053614;28;19928;-56
2022/06/04 03:07:29;;;;;;;;;;;;;;;16.16;77.25;97992.59;5057198;28;19978;-58
2022/06/04 03:10:20;;;;;;;;;;;;;;;16.18;77.57;97995.78;5057381;28;19920;-57
2022/06/04 03:13:10;;;;;;;;;;;;;;;16.20;77.38;98004.47;5068539;28;19932;-58
2022/06/04 03:16:00;;;;;;;;;;;;;;;16.09;78.00;98000.63;5059228;28;20326;-58
2022/06/04 03:18:48;;;;;;;;;;;;;;;16.12;77.72;98005.38;5071714;28;20014;-57
2022/06/04 03:21:37;;;;;;;;;;;;;;;16.18;77.26;98012.22;5070695;28;19928;-57
2022/06/04 03:24:26;;;;;;;;;;;;;;;16.10;77.43;98017.84;5074338;28;20040;-58
2022/06/04 03:27:16;;;;;;;;;;;;;;;16.09;77.78;98017.06;5078171;28;20384;-57
2022/06/04 03:30:05;;;;;;;;;;;;;;;16.16;77.00;98016.47;5074206;28;19925;-58
2022/06/04 03:32:54;;;;;;;;;;;;;;;16.23;77.13;98009.25;5071371;28;20431;-57
2022/06/04 03:35:42;;;;;;;;;;;;;;;16.18;77.07;98005.94;5069325;28;20155;-57
2022/06/04 03:38:31;;;;;;;;;;;;;;;16.37;76.34;98005.34;5085873;28;20006;-57
2022/06/04 03:41:20;;;;;;;;;;;;;;;16.21;76.63;98003.31;5085749;28;19924;-58
2022/06/04 03:44:10;;;;;;;;;;;;;;;16.29;76.42;97993.34;5090297;28;19927;-57
2022/06/04 03:46:58;;;;;;;;;;;;;;;16.13;77.37;97998.75;5088470;28;20268;-58
2022/06/04 03:49:47;;;;;;;;;;;;;;;16.14;77.52;98005.84;5085743;28;20219;-58
2022/06/04 03:52:35;;;;;;;;;;;;;;;16.33;76.56;98007.19;5070722;28;19924;-57
2022/06/04 03:55:24;;;;;;;;;;;;;;;16.40;75.99;98004.63;5085692;28;19936;-57
2022/06/04 03:58:13;;;;;;;;;;;;;;;16.43;76.06;98006.69;5081315;28;20206;-57
2022/06/04 04:01:13;;;;;;;;;;;;;;;16.48;75.39;97999.03;5078646;28;19920;-58
2022/06/04 04:04:02;;;;;;;;;;;;;;;16.31;76.18;98009.47;5075622;28;19920;-58
2022/06/04 04:06:50;;;;;;;;;;;;;;;16.13;77.25;98011.66;5077272;28;19925;-57
2022/06/04 04:09:39;;;;;;;;;;;;;;;16.24;76.95;98005.38;5073419;28;19924;-55
2022/06/04 04:12:28;;;;;;;;;;;;;;;16.66;74.57;97996.78;5078829;28;20265;-55
2022/06/04 04:15:17;;;;;;;;;;;;;;;16.33;76.04;98007.19;5077976;28;19928;-56
2022/06/04 04:18:07;;;;;;;;;;;;;;;16.37;76.21;97997.91;5077748;28;19924;-59
2022/06/04 04:24:08;;;;;;;;;;;;;;;16.47;74.82;97997.44;5098012;28;19924;-57
2022/06/04 04:26:57;;;;;;;;;;;;;;;16.45;75.39;97993.41;5097164;28;19926;-56
2022/06/04 04:29:45;;;;;;;;;;;;;;;16.64;74.69;97990.84;5085269;28;19930;-56
2022/06/04 04:32:34;;;;;;;;;;;;;;;16.40;75.53;97990.91;5088402;28;19936;-56
2022/06/04 04:35:25;;;;;;;;;;;;;;;16.44;76.13;97991.84;5091761;28;19920;-54
2022/06/04 04:38:13;;;;;;;;;;;;;;;16.50;75.33;97995.91;5087981;28;19924;-57
2022/06/04 04:41:06;;;;;;;;;;;;;;;16.40;76.13;98010.13;5085651;28;19968;-56
2022/06/04 04:43:54;;;;;;;;;;;;;;;16.45;76.14;98005.19;5079456;28;19975;-56
2022/06/04 04:46:43;;;;;;;;;;;;;;;16.57;75.82;98012.59;5079340;28;20290;-56
2022/06/04 04:49:32;;;;;;;;;;;;;;;17.00;73.76;98011.06;5071051;28;20228;-55
2022/06/04 04:52:23;;;;;;;;;;;;;;;16.81;74.71;98013.69;5079403;28;20003;-56
2022/06/04 04:55:11;;;;;;;;;;;;;;;16.82;74.73;98007.03;5070170;28;19925;-57
2022/06/04 04:58:04;;;;;;;;;;;;;;;16.90;74.40;98008.84;5075409;28;19943;-55
2022/06/04 05:00:53;;;;;;;;;;;;;;;17.04;74.02;98011.94;5078296;28;19920;-55
2022/06/04 05:04:05;;;;;;;;;;;;;;;17.15;73.48;98015.81;5079536;28;19924;-54
2022/06/04 05:06:54;;;;;;;;;;;;;;;17.08;73.98;98018.34;5073372;28;19924;-56
2022/06/04 05:09:44;;;;;;;;;;;;;;;17.12;73.78;98021.19;5072286;28;19924;-56
2022/06/04 05:12:32;;;;;;;;;;;;;;;17.20;73.26;98034.72;5062956;28;19932;-57
2022/06/04 05:15:21;;;;;;;;;;;;;;;16.99;74.36;98034.16;5071906;28;20014;-57
2022/06/04 05:18:10;;;;;;;;;;;;;;;17.01;74.47;98035.41;5078483;28;20484;-57
2022/06/04 05:21:48;;;;;;;;;;;;;;;17.00;74.73;98038.53;5079879;28;20243;-57
2022/06/04 05:24:37;;;;;;;;;;;;;;;17.44;73.15;98044.00;5075312;28;19920;-56
2022/06/04 05:27:26;;;;;;;;;;;;;;;17.48;72.64;98051.19;5078324;28;20066;-56
2022/06/04 05:30:15;;;;;;;;;;;;;;;17.52;72.25;98045.75;5067083;28;20292;-56
2022/06/04 05:33:04;;;;;;;;;;;;;;;17.21;74.16;98057.53;5069522;28;19920;-56
2022/06/04 05:35:53;;;;;;;;;;;;;;;17.33;74.52;98062.16;5075942;28;20008;-56
2022/06/04 05:39:07;;;;;;;;;;;;;;;17.88;72.61;98054.94;5096287;28;19924;-56
2022/06/04 05:41:55;;;;;;;;;;;;;;;17.96;71.75;98065.75;5099470;28;20371;-56
2022/06/04 05:44:45;;;;;;;;;;;;;;;17.69;73.31;98056.44;5097121;28;20435;-56
2022/06/04 05:47:34;;;;;;;;;;;;;;;17.98;72.69;98057.94;5091733;28;19927;-55
2022/06/04 05:50:23;;;;;;;;;;;;;;;18.21;71.72;98055.31;5093563;28;19927;-56
2022/06/04 05:53:12;;;;;;;;;;;;;;;18.31;70.46;98064.97;5097656;28;20656;-57
2022/06/04 05:56:26;;;;;;;;;;;;;;;18.15;71.85;98067.75;5095731;28;19926;-55
2022/06/04 05:59:15;;;;;;;;;;;;;;;18.38;70.68;98065.16;5095947;28;19998;-56
2022/06/04 06:02:05;;;;;;;;;;;;;;;18.38;70.76;98072.63;5097746;28;19930;-56
2022/06/04 06:04:53;;;;;;;;;;;;;;;18.48;71.15;98081.09;5098816;28;19992;-55
2022/06/04 06:08:06;;;;;;;;;;;;;;;18.48;71.38;98070.09;5093792;28;19982;-54
2022/06/04 06:10:54;;;;;;;;;;;;;;;18.56;70.84;98079.28;5092405;28;20428;-56
2022/06/04 06:13:43;;;;;;;;;;;;;;;18.70;70.48;98076.91;5098215;28;20101;-55
2022/06/04 06:16:38;;;;;;;;;;;;;;;18.74;69.71;98076.94;5094738;28;19959;-55
2022/06/04 06:19:28;;;;;;;;;;;;;;;18.90;68.86;98087.91;5097211;28;19927;-56
2022/06/04 06:22:16;;;;;;;;;;;;;;;18.73;69.53;98081.66;5093520;28;19924;-54
2022/06/04 06:25:06;;;;;;;;;;;;;;;18.55;70.38;98086.75;5093068;28;19931;-55
2022/06/04 06:31:12;;;;;;;;;;;;;;;18.30;72.04;98082.63;5093369;28;19920;-56
2022/06/04 06:34:26;;;;;;;;;;;;;;;18.32;72.31;98094.06;5094623;28;20480;-56
2022/06/04 06:37:15;;;;;;;;;;;;;;;18.52;71.29;98094.91;5090220;28;19988;-56
2022/06/04 06:40:04;;;;;;;;;;;;;;;18.49;71.51;98095.66;5097964;28;20306;-56
2022/06/04 06:42:53;;;;;;;;;;;;;;;18.52;71.94;98090.22;5094863;28;19919;-54
2022/06/04 06:45:44;;;;;;;;;;;;;;;18.61;71.45;98095.53;5097695;28;19930;-56
2022/06/04 06:48:32;;;;;;;;;;;;;;;18.14;73.27;98106.63;5101971;28;20190;-56
2022/06/04 06:51:23;;;;;;;;;;;;;;;18.09;73.84;98107.69;5096109;28;20060;-56
2022/06/04 06:54:12;;;;;;;;;;;;;;;18.32;72.89;98113.31;5099970;28;19939;-56
2022/06/04 06:57:01;;;;;;;;;;;;;;;18.16;73.14;98113.34;5098324;28;20290;-57
2022/06/04 06:59:50;;;;;;;;;;;;;;;18.17;73.21;98103.16;5101393;28;19931;-56
2022/06/04 07:02:39;;;;;;;;;;;;;;;18.02;73.68;98096.50;5095680;28;20343;-56
2022/06/04 07:05:32;;;;;;;;;;;;;;;18.02;73.73;98100.06;5087126;28;20049;-56
2022/06/04 07:08:21;;;;;;;;;;;;;;;17.83;74.59;98097.22;5091382;28;20422;-56
2022/06/04 07:11:11;;;;;;;;;;;;;;;17.90;74.25;98093.88;5091049;28;20020;-56
2022/06/04 07:14:25;;;;;;;;;;;;;;;17.84;74.78;98090.56;5095669;28;19919;-56
2022/06/04 07:17:13;;;;;;;;;;;;;;;18.11;73.31;98093.56;5098226;28;19924;-56
2022/06/04 07:20:02;;;;;;;;;;;;;;;17.84;74.57;98104.31;5090790;28;19920;-56
2022/06/04 07:22:52;;;;;;;;;;;;;;;18.03;74.21;98123.66;5101889;28;19920;-56
2022/06/04 07:25:44;;;;;;;;;;;;;;;17.87;74.85;98133.03;5103110;28;19919;-56
2022/06/04 07:28:36;;;;;;;;;;;;;;;17.73;74.44;98139.75;5079391;28;19930;-56
2022/06/04 07:31:25;;;;;;;;;;;;;;;17.53;75.34;98141.56;5096248;28;20219;-56
2022/06/04 07:34:14;;;;;;;;;;;;;;;17.44;75.86;98151.13;5094411;28;20265;-56
2022/06/04 07:37:07;;;;;;;;;;;;;;;17.47;75.79;98153.13;5094077;28;19946;-55
2022/06/04 07:39:55;;;;;;;;;;;;;;;17.58;75.78;98162.50;5101363;28;19946;-55
2022/06/04 07:42:46;;;;;;;;;;;;;;;17.77;75.10;98162.63;5100100;28;20084;-55
2022/06/04 07:45:35;;;;;;;;;;;;;;;17.86;75.01;98169.94;5095117;28;19920;-56
2022/06/04 07:48:25;;;;;;;;;;;;;;;17.96;74.74;98166.66;5092166;28;19923;-55
2022/06/04 07:51:15;;;;;;;;;;;;;;;18.23;74.15;98167.72;5099327;28;19920;-55
2022/06/04 07:54:31;;;;;;;;;;;;;;;18.42;74.09;98165.03;5100745;28;19927;-56
2022/06/04 07:57:19;;;;;;;;;;;;;;;18.48;73.08;98168.31;5101694;28;20042;-56
2022/06/04 08:00:09;;;;;;;;;;;;;;;18.45;72.71;98177.28;5093819;28;19924;-55
2022/06/04 08:03:02;;;;;;;;;;;;;;;18.44;72.85;98172.97;5101634;28;19926;-56
2022/06/04 08:05:51;;;;;;;;;;;;;;;18.40;72.97;98172.06;5096403;28;19996;-56
2022/06/04 08:08:40;;;;;;;;;;;;;;;18.41;73.20;98176.41;5097617;28;19924;-55
2022/06/04 08:11:33;;;;;;;;;;;;;;;18.44;73.03;98164.69;5100648;28;19923;-56
2022/06/04 08:14:22;;;;;;;;;;;;;;;18.73;72.63;98169.72;5100590;28;19920;-56
2022/06/04 08:17:15;;;;;;;;;;;;;;;19.00;71.01;98164.41;5100915;28;19975;-56
2022/06/04 08:20:05;;;;;;;;;;;;;;;19.27;70.04;98162.63;5091238;28;20263;-56
2022/06/04 08:22:53;;;;;;;;;;;;;;;18.91;71.04;98155.56;5091789;28;19924;-56
2022/06/04 08:25:43;;;;;;;;;;;;;;;18.73;71.78;98153.22;5097847;28;20326;-56
2022/06/04 08:28:32;;;;;;;;;;;;;;;18.79;72.37;98157.28;5095807;28;19923;-55
2022/06/04 08:31:21;;;;;;;;;;;;;;;18.94;71.50;98154.84;5099282;28;19927;-55
2022/06/04 08:34:10;;;;;;;;;;;;;;;18.95;71.58;98159.97;5096765;28;19932;-54
2022/06/04 08:37:00;;;;;;;;;;;;;;;19.11;71.11;98179.19;5090697;28;20043;-54
2022/06/04 08:39:48;;;;;;;;;;;;;;;19.17;70.60;98177.75;5099114;28;19924;-56
2022/06/04 08:42:41;;;;;;;;;;;;;;;19.19;71.05;98182.94;5094082;28;19966;-56
2022/06/04 08:45:29;;;;;;;;;;;;;;;19.23;70.58;98175.50;5096554;28;19972;-56
2022/06/04 08:48:19;;;;;;;;;;;;;;;19.26;70.00;98188.56;5097414;28;20045;-57
2022/06/04 08:51:12;;;;;;;;;;;;;;;19.38;70.18;98189.22;5097975;28;19930;-56
2022/06/04 08:57:32;;;;;;;;;;;;;;;19.49;69.69;98197.69;5098288;28;20477;-56
2022/06/04 09:00:26;;;;;;;;;;;;;;;19.68;69.71;98198.91;5097251;28;20412;-56
2022/06/04 09:03:14;;;;;;;;;;;;;;;19.88;69.68;98217.81;5098653;28;19931;-57
2022/06/04 09:06:22;;;;;;;;;;;;;;;19.74;69.51;98206.50;5100298;28;19920;-57
2022/06/04 09:09:12;;;;;;;;;;;;;;;19.81;69.79;98212.13;5100570;28;20056;-56
2022/06/04 09:12:04;;;;;;;;;;;;;;;19.83;69.36;98201.56;5097076;28;19924;-57
2022/06/04 09:15:18;;;;;;;;;;;;;;;19.80;69.68;98198.72;5099705;28;19939;-57
2022/06/04 09:18:32;;;;;;;;;;;;;;;19.61;69.73;98194.03;5097827;28;20100;-57
2022/06/04 09:21:20;;;;;;;;;;;;;;;19.81;68.94;98179.06;5095854;28;19920;-54
2022/06/04 09:24:09;;;;;;;;;;;;;;;19.61;69.71;98170.03;5093399;28;20065;-56
2022/06/04 09:27:04;;;;;;;;;;;;;;;19.57;69.72;98160.88;5098022;28;19924;-56
2022/06/04 09:30:21;;;;;;;;;;;;;;;19.75;70.02;98150.19;5099196;28;20081;-56
2022/06/04 09:33:34;;;;;;;;;;;;;;;19.70;70.52;98131.19;5091968;28;19932;-55
2022/06/04 09:36:24;;;;;;;;;;;;;;;19.67;70.69;98111.88;5091472;28;19925;-53
2022/06/04 09:39:21;;;;;;;;;;;;;;;19.67;71.17;98104.38;5099106;28;20322;-56
2022/06/04 09:42:34;;;;;;;;;;;;;;;19.58;71.94;98117.56;5095567;28;19935;-56
2022/06/04 09:45:27;;;;;;;;;;;;;;;19.50;71.89;98118.63;5098839;28;19973;-53
2022/06/04 09:48:20;;;;;;;;;;;;;;;19.61;71.45;98105.84;5095218;28;19920;-56
2022/06/04 09:51:15;;;;;;;;;;;;;;;19.51;72.41;98107.22;5091319;28;20388;-55
2022/06/04 09:54:05;;;;;;;;;;;;;;;19.72;71.88;98115.13;5097089;28;20346;-56
2022/06/04 09:56:54;;;;;;;;;;;;;;;19.78;71.91;98113.63;5093727;28;19924;-56
2022/06/04 09:59:49;;;;;;;;;;;;;;;20.21;70.32;98121.84;5096295;28;20689;-55
2022/06/04 10:02:40;;;;;;;;;;;;;;;19.87;71.24;98127.19;5093000;28;20231;-57
2022/06/04 10:05:32;;;;;;;;;;;;;;;20.10;71.20;98125.22;5088448;28;20086;-56
2022/06/04 10:08:22;;;;;;;;;;;;;;;20.18;70.40;98106.81;5077185;28;20274;-56
2022/06/04 10:11:13;;;;;;;;;;;;;;;20.09;70.52;98104.31;5093673;28;19934;-56
2022/06/04 10:14:03;;;;;;;;;;;;;;;20.13;71.23;98121.72;5096592;28;19920;-57
2022/06/04 10:16:51;;;;;;;;;;;;;;;20.03;71.48;98116.84;5095649;28;19997;-56
2022/06/04 10:20:05;;;;;;;;;;;;;;;20.27;71.37;98112.06;5097821;28;19919;-56
2022/06/04 10:22:55;;;;;;;;;;;;;;;20.61;71.34;98110.25;5095669;28;19920;-57
2022/06/04 10:25:47;;;;;;;;;;;;;;;20.62;70.59;98111.84;5091823;28;20587;-56
2022/06/04 10:28:37;;;;;;;;;;;;;;;21.15;69.37;98101.50;5090763;28;19924;-56
2022/06/04 10:31:28;;;;;;;;;;;;;;;21.39;66.72;98111.28;5092906;28;20397;-56
2022/06/04 10:34:22;;;;;;;;;;;;;;;21.47;66.17;98114.13;5096968;28;19980;-57
2022/06/04 10:40:16;;;;;;;;;;;;;;;21.49;66.64;98136.66;5094435;28;20465;-56
2022/06/04 10:42:50;;;;;;;;;;;;;;;21.65;65.15;98142.75;5100303;28;19927;-56
2022/06/04 10:45:19;;;;;;;;;;;;;;;21.67;66.24;98146.72;5103448;28;19919;-57
2022/06/04 10:47:49;;;;;;;;;;;;;;;21.87;65.33;98147.31;5098667;28;19955;-57
2022/06/04 10:53:38;;;;;;;;;;;;;;;21.66;66.62;98153.41;5102878;28;20018;-57
2022/06/04 10:56:14;;;;;;;;;;;;;;;21.52;66.50;98152.47;5103992;28;20267;-53
2022/06/04 10:58:43;;;;;;;;;;;;;;;21.25;67.42;98155.28;5102974;28;20093;-56
2022/06/04 11:01:37;;;;;;;;;;;;;;;21.01;68.22;98156.56;5097259;28;20473;-56
2022/06/04 11:04:08;;;;;;;;;;;;;;;20.85;69.17;98165.03;5099837;28;20409;-57
2022/06/04 11:06:37;;;;;;;;;;;;;;;20.88;69.13;98167.06;5098223;28;20041;-56
2022/06/04 11:09:07;;;;;;;;;;;;;;;20.79;68.69;98160.22;5098423;28;19920;-52
2022/06/04 11:11:38;;;;;;;;;;;;;;;21.04;67.08;98166.06;5094058;28;20026;-54
2022/06/04 11:14:09;;;;;;;;;;;;;;;20.78;68.60;98158.63;5103278;28;19932;-55
2022/06/04 11:16:38;;;;;;;;;;;;;;;20.77;69.38;98162.53;5102459;28;19920;-54
2022/06/04 11:19:07;;;;;;;;;;;;;;;20.82;69.11;98159.44;5103272;28;20398;-56
2022/06/04 11:21:37;;;;;;;;;;;;;;;20.80;69.16;98170.06;5102805;28;19920;-56
2022/06/04 11:24:07;;;;;;;;;;;;;;;20.65;69.91;98174.59;5102020;28;19919;-51
2022/06/04 11:26:39;;;;;;;;;;;;;;;20.48;70.97;98177.88;5084912;28;19928;-53
2022/06/04 11:29:08;;;;;;;;;;;;;;;20.24;71.58;98182.59;5098560;28;19927;-53
2022/06/04 11:31:41;;;;;;;;;;;;;;;20.02;72.32;98177.84;5099878;28;20434;-54
2022/06/04 11:34:13;;;;;;;;;;;;;;;19.97;72.61;98186.44;5100494;28;20048;-52
2022/06/04 11:36:44;;;;;;;;;;;;;;;19.93;72.87;98191.91;5100819;28;19931;-52
2022/06/04 11:39:18;;;;;;;;;;;;;;;19.94;73.00;98187.19;5097695;28;19928;-53
2022/06/04 11:41:52;;;;;;;;;;;;;;;20.01;72.85;98187.28;5103720;28;19924;-49
2022/06/04 11:44:25;;;;;;;;;;;;;;;20.15;72.77;98193.06;5103151;28;19943;-54
2022/06/04 11:46:57;;;;;;;;;;;;;;;20.30;72.73;98194.91;5105122;28;19920;-49
2022/06/04 11:49:28;;;;;;;;;;;;;;;20.22;72.64;98198.69;5105818;27;20351;-53
2022/06/04 11:52:01;;;;;;;;;;;;;;;20.16;72.76;98205.69;5104046;28;19950;-52
2022/06/04 11:54:46;;;;;;;;;;;;;;;20.13;73.39;98200.91;5105209;28;19920;-54
2022/06/04 11:57:16;;;;;;;;;;;;;;;20.15;73.20;98198.59;5103829;28;19924;-57
2022/06/04 11:59:53;;;;;;;;;;;;;;;20.22;72.64;98203.44;5104708;28;20019;-54
2022/06/04 12:02:24;;;;;;;;;;;;;;;20.10;73.33;98210.72;5099929;28;19945;-52
2022/06/04 12:04:57;;;;;;;;;;;;;;;20.07;73.05;98202.38;5105614;28;19998;-50
2022/06/04 12:08:14;;;;;;;;;;;;;;;20.04;73.01;98203.13;5105548;28;19944;-55
2022/06/04 12:11:00;;;;;;;;;;;;;;;20.04;73.56;98198.41;5106348;28;20383;-52
2022/06/04 12:13:33;;;;;;;;;;;;;;;20.04;73.18;98203.91;5088568;28;19927;-57
2022/06/04 12:16:11;;;;;;;;;;;;;;;19.98;73.21;98204.59;5103417;28;20003;-56
2022/06/04 12:18:42;;;;;;;;;;;;;;;19.95;73.81;98197.84;5105822;28;19996;-57
2022/06/04 12:24:18;;;;;;;;;;;;;;;20.21;72.58;98186.06;5101975;28;19924;-56
2022/06/04 12:29:46;;;;;;;;;;;;;;;20.34;71.94;98189.44;5093802;28;19920;-57
2022/06/04 12:32:22;;;;;;;;;;;;;;;20.17;72.55;98184.41;5100773;28;19978;-54
2022/06/04 12:34:50;;;;;;;;;;;;;;;20.25;72.08;98188.91;5104180;28;19942;-56
2022/06/04 12:37:22;;;;;;;;;;;;;;;20.25;72.54;98186.94;5086140;28;19935;-54
2022/06/04 12:40:17;;;;;;;;;;;;;;;20.36;72.13;98187.91;5100265;28;19926;-56
2022/06/04 12:43:30;;;;;;;;;;;;;;;20.40;72.16;98191.53;5098090;28;19919;-54
2022/06/04 12:46:31;;;;;;;;;;;;;;;20.55;71.87;98197.28;5100797;28;20609;-55
2022/06/04 12:49:21;;;;;;;;;;;;;;;20.41;71.97;98211.66;5096184;28;20025;-56
2022/06/04 12:52:23;;;;;;;;;;;;;;;20.25;72.05;98220.06;5096874;28;19920;-55
2022/06/04 12:58:31;;;;;;;;;;;;;;;19.95;72.97;98216.34;5093548;28;20032;-56
2022/06/04 13:01:01;;;;;;;;;;;;;;;19.91;73.24;98204.44;5102001;28;19920;-54
2022/06/04 13:04:07;;;;;;;;;;;;;;;19.88;73.33;98201.25;5104506;28;19921;-57
2022/06/04 13:06:36;;;;;;;;;;;;;;;19.94;73.42;98199.00;5107358;28;20049;-57
2022/06/04 13:09:06;;;;;;;;;;;;;;;19.98;73.56;98210.09;5107533;28;20264;-55
2022/06/04 13:11:46;;;;;;;;;;;;;;;20.04;72.75;98206.69;5101455;28;20023;-56
2022/06/04 13:14:17;;;;;;;;;;;;;;;20.21;72.79;98212.88;5098062;28;20284;-55
2022/06/04 13:16:49;;;;;;;;;;;;;;;20.31;72.13;98221.34;5103293;28;19927;-55
2022/06/04 13:19:38;;;;;;;;;;;;;;;20.33;72.12;98220.97;5104716;28;19924;-56
2022/06/04 13:22:10;;;;;;;;;;;;;;;20.34;71.64;98217.03;5103193;28;19920;-53
2022/06/04 13:24:38;;;;;;;;;;;;;;;20.54;71.39;98217.78;5086707;28;19920;-52
2022/06/04 13:27:10;;;;;;;;;;;;;;;20.64;71.48;98214.41;5102696;28;19969;-54
2022/06/04 13:29:39;;;;;;;;;;;;;;;20.71;71.15;98206.22;5098959;28;19924;-56
2022/06/04 13:32:12;;;;;;;;;;;;;;;20.73;70.74;98212.19;5102388;28;20415;-55
2022/06/04 13:34:42;;;;;;;;;;;;;;;20.94;70.51;98211.72;5104100;28;19974;-53
2022/06/04 13:37:27;;;;;;;;;;;;;;;21.18;70.04;98199.41;5101542;28;19923;-56
2022/06/04 13:39:55;;;;;;;;;;;;;;;21.18;69.58;98193.88;5105256;28;20099;-53
2022/06/04 13:43:08;;;;;;;;;;;;;;;21.52;67.52;98202.22;5099679;28;20494;-54
2022/06/04 13:46:07;;;;;;;;;;;;;;;21.12;69.50;98184.34;5096224;28;19919;-55
2022/06/04 13:49:05;;;;;;;;;;;;;;;21.14;68.59;98193.81;5098513;28;20548;-56
2022/06/04 13:51:57;;;;;;;;;;;;;;;21.22;69.18;98180.91;5082674;28;20395;-53
2022/06/04 13:54:50;;;;;;;;;;;;;;;21.31;68.40;98181.47;5089943;28;19960;-53
2022/06/04 13:57:40;;;;;;;;;;;;;;;21.36;67.52;98177.53;5096998;28;19959;-51
2022/06/04 14:00:30;;;;;;;;;;;;;;;21.25;68.43;98180.16;5090184;28;19920;-55
2022/06/04 14:03:20;;;;;;;;;;;;;;;21.23;68.41;98182.50;5095328;28;20081;-55
2022/06/04 14:06:08;;;;;;;;;;;;;;;21.30;67.92;98193.66;5098217;28;19920;-53
2022/06/04 14:09:02;;;;;;;;;;;;;;;21.33;68.05;98189.38;5093928;28;19969;-52
2022/06/04 14:11:52;;;;;;;;;;;;;;;21.28;68.07;98197.97;5095546;28;19924;-51
2022/06/04 14:14:45;;;;;;;;;;;;;;;21.22;68.18;98197.50;5100086;28;19924;-55
2022/06/04 14:21:13;;;;;;;;;;;;;;;21.49;67.49;98203.00;5086373;28;19924;-53
2022/06/04 14:24:10;;;;;;;;;;;;;;;21.63;66.63;98198.44;5084552;28;19931;-53
2022/06/04 14:27:00;;;;;;;;;;;;;;;21.86;66.76;98201.06;5091113;28;20334;-53
2022/06/04 14:29:51;;;;;;;;;;;;;;;21.95;65.52;98198.78;5088573;28;20053;-52
2022/06/04 14:33:05;;;;;;;;;;;;;;;22.08;65.79;98198.50;5090333;28;20014;-53
2022/06/04 14:35:59;;;;;;;;;;;;;;;22.16;66.71;98192.69;5073965;28;20444;-54
2022/06/04 14:38:48;;;;;;;;;;;;;;;22.31;65.49;98195.56;5092636;28;20379;-53
2022/06/04 14:41:44;;;;;;;;;;;;;;;22.43;63.98;98200.84;5094509;28;20254;-54
2022/06/04 14:44:43;;;;;;;;;;;;;;;22.25;64.59;98203.44;5087767;28;20342;-55
2022/06/04 14:47:43;;;;;;;;;;;;;;;22.11;65.22;98201.34;5091309;28;19932;-54
2022/06/04 14:50:36;;;;;;;;;;;;;;;22.15;64.90;98202.16;5089470;28;19932;-51
2022/06/04 14:53:24;;;;;;;;;;;;;;;21.98;65.38;98211.84;5090745;28;19962;-53
2022/06/04 14:56:25;;;;;;;;;;;;;;;22.00;65.76;98202.34;5088376;28;19935;-55
2022/06/04 14:59:18;;;;;;;;;;;;;;;22.04;65.97;98205.97;5087459;28;20722;-51
2022/06/04 15:02:13;;;;;;;;;;;;;;;21.99;66.10;98212.63;5085323;28;19925;-51
2022/06/04 15:08:56;;;;;;;;;;;;;;;22.04;66.53;98205.97;5092830;28;20337;-52
2022/06/04 15:12:03;;;;;;;;;;;;;;;22.05;65.72;98210.31;5089412;28;19931;-52
2022/06/04 15:15:07;;;;;;;;;;;;;;;21.98;66.38;98214.59;5093262;28;20012;-51
2022/06/04 15:18:20;;;;;;;;;;;;;;;21.87;64.37;98208.16;5097180;28;20886;-53
2022/06/04 15:21:13;;;;;;;;;;;;;;;21.84;65.76;98224.72;5094091;28;19920;-54
2022/06/04 15:24:06;;;;;;;;;;;;;;;21.85;63.35;98209.72;5089745;28;19955;-51
2022/06/04 15:26:57;;;;;;;;;;;;;;;22.04;63.32;98205.97;5092876;28;19920;-53